Time;durP1;ratioP1;P1;durP2;ratioP2;P2;SDS_P1;SDS_P2;PMS_P1;PMS_P2;Temp;Humidity;BMP_temperature;BMP_pressure;BME280_temperature;BME280_humidity;BME280_pressure;Samples;Min_cycle;Max_cycle;Signal;HPM_P1;HPM_P2
2023/10/05 00:01:34;;;;;;;7.10;2.50;;;;;;;14.38;79.89;102086.97;3604093;39;20058;-66
2023/10/05 00:04:01;;;;;;;8.52;2.20;;;;;;;14.37;79.51;102087.97;3615673;39;20119;-66
2023/10/05 00:06:27;;;;;;;7.35;2.08;;;;;;;14.39;79.70;102095.97;3608828;39;20043;-68
2023/10/05 00:08:56;;;;;;;7.75;2.67;;;;;;;14.41;79.88;102094.06;3610519;39;20058;-66
2023/10/05 00:11:28;;;;;;;7.60;2.50;;;;;;;14.43;79.96;102089.44;3615145;39;20389;-67
2023/10/05 00:13:58;;;;;;;5.45;2.40;;;;;;;14.44;80.04;102093.88;3615192;39;20378;-67
2023/10/05 00:16:36;;;;;;;5.57;1.85;;;;;;;14.41;79.60;102094.06;3614699;39;20350;-67
2023/10/05 00:19:11;;;;;;;9.27;2.30;;;;;;;14.41;79.95;102099.47;3615950;39;20062;-67
2023/10/05 00:21:51;;;;;;;10.55;2.63;;;;;;;14.43;79.74;102107.47;3608993;39;20058;-67
2023/10/05 00:24:37;;;;;;;6.90;2.20;;;;;;;14.36;79.45;102096.13;3614384;39;20059;-67
2023/10/05 00:27:08;;;;;;;6.10;2.22;;;;;;;14.39;79.72;102101.38;3615826;39;20085;-67
2023/10/05 00:29:41;;;;;;;8.25;2.40;;;;;;;14.42;79.94;102105.75;3607153;39;20063;-67
2023/10/05 00:32:15;;;;;;;7.68;2.35;;;;;;;14.42;79.56;102106.63;3616672;39;20062;-67
2023/10/05 00:34:44;;;;;;;6.88;2.08;;;;;;;14.25;79.66;102085.09;3615285;39;20120;-67
2023/10/05 00:37:11;;;;;;;8.20;2.30;;;;;;;14.41;80.06;102110.28;3607121;39;20377;-66
2023/10/05 00:39:37;;;;;;;7.45;2.50;;;;;;;14.28;79.76;102091.19;3616007;39;20091;-67
2023/10/05 00:44:32;;;;;;;6.93;2.35;;;;;;;14.29;80.00;102092.06;3617914;39;20115;-67
2023/10/05 00:47:03;;;;;;;6.05;2.08;;;;;;;14.41;80.15;102118.41;3613575;39;20051;-67
2023/10/05 00:49:45;;;;;;;7.15;2.38;;;;;;;14.29;80.15;102102.88;3614410;39;20108;-67
2023/10/05 00:52:15;;;;;;;6.15;2.30;;;;;;;14.36;80.28;102112.38;3616742;39;20045;-67
2023/10/05 00:54:51;;;;;;;7.72;2.00;;;;;;;14.40;80.25;102119.38;3616017;39;20086;-66
2023/10/05 00:57:22;;;;;;;6.72;2.45;;;;;;;14.40;80.00;102119.38;3615550;39;20043;-68
2023/10/05 01:00:09;;;;;;;7.50;2.50;;;;;;;14.03;80.06;102053.84;3615740;39;20058;-68
2023/10/05 01:02:36;;;;;;;6.53;1.90;;;;;;;14.40;80.20;102113.97;3617357;39;20384;-67
2023/10/05 01:05:16;;;;;;;10.52;2.30;;;;;;;14.38;80.44;102118.56;3618424;39;20047;-66
2023/10/05 01:07:43;;;;;;;7.10;2.45;;;;;;;14.36;80.36;102120.47;3615716;39;20042;-66
2023/10/05 01:10:22;;;;;;;7.13;2.53;;;;;;;14.34;80.72;102123.28;3614910;39;20054;-66
2023/10/05 01:12:48;;;;;;;7.82;2.28;;;;;;;14.36;80.50;102124.06;3598968;39;20043;-66
2023/10/05 01:15:24;;;;;;;7.75;2.25;;;;;;;14.32;80.75;102118.94;3615398;39;20481;-67
2023/10/05 01:17:51;;;;;;;5.22;2.20;;;;;;;14.37;80.71;102120.41;3613885;39;20381;-66
2023/10/05 01:22:46;;;;;;;8.05;2.47;;;;;;;14.23;80.71;102095.09;3614698;39;20043;-66
2023/10/05 01:25:14;;;;;;;6.43;2.20;;;;;;;14.28;80.57;102106.53;3617109;39;20069;-67
2023/10/05 01:27:46;;;;;;;5.88;2.45;;;;;;;14.22;81.00;102110.47;3615510;39;20136;-67
2023/10/05 01:30:12;;;;;;;8.43;2.50;;;;;;;14.25;81.15;102112.13;3615793;39;20399;-67
2023/10/05 01:32:42;;;;;;;6.22;2.28;;;;;;;14.27;81.30;102108.38;3617925;39;20054;-67
2023/10/05 01:35:13;;;;;;;8.57;2.50;;;;;;;14.26;81.23;102111.16;3615589;39;20081;-67
2023/10/05 01:37:40;;;;;;;5.88;2.17;;;;;;;14.24;81.38;102110.38;3618122;39;20053;-68
2023/10/05 01:40:11;;;;;;;6.97;2.63;;;;;;;14.26;81.21;102119.28;3619753;39;20047;-67
2023/10/05 01:42:40;;;;;;;10.73;5.68;;;;;;;14.16;81.42;102105.41;3606214;39;20047;-67
2023/10/05 01:45:08;;;;;;;7.30;2.40;;;;;;;14.24;81.30;102113.06;3617102;39;20134;-67
2023/10/05 01:47:33;;;;;;;5.82;2.30;;;;;;;14.23;81.61;102097.81;3615734;39;20051;-67
2023/10/05 01:49:59;;;;;;;7.68;2.20;;;;;;;14.20;81.69;102092.56;3615964;39;20313;-68
2023/10/05 01:52:24;;;;;;;9.52;2.60;;;;;;;14.24;81.10;102102.25;3618302;39;20054;-66
2023/10/05 01:54:52;;;;;;;5.55;2.50;;;;;;;14.21;81.89;102113.25;3619124;39;20061;-66
2023/10/05 01:57:19;;;;;;;11.05;2.70;;;;;;;14.23;81.43;102097.81;3619410;39;20058;-67
2023/10/05 01:59:45;;;;;;;11.38;2.50;;;;;;;14.21;81.22;102097.00;3617302;39;20043;-66
2023/10/05 02:02:12;;;;;;;8.70;2.80;;;;;;;14.22;81.63;102098.78;3617348;39;20067;-66
2023/10/05 02:04:40;;;;;;;6.57;2.30;;;;;;;14.21;81.55;102099.72;3607075;39;20049;-67
2023/10/05 02:07:06;;;;;;;6.03;2.30;;;;;;;14.19;82.21;102102.53;3617473;39;20393;-67
2023/10/05 02:09:31;;;;;;;9.00;2.20;;;;;;;14.16;82.27;102106.25;3616593;39;20104;-67
2023/10/05 02:12:02;;;;;;;8.02;2.28;;;;;;;13.97;82.11;102070.41;3615510;39;20047;-67
2023/10/05 02:14:30;;;;;;;8.88;2.38;;;;;;;14.14;82.16;102107.31;3615797;39;20276;-68
2023/10/05 02:16:57;;;;;;;8.77;2.80;;;;;;;14.13;82.57;102095.63;3606517;39;20051;-67
2023/10/05 02:19:23;;;;;;;7.68;2.60;;;;;;;14.13;81.94;102095.63;3609960;39;20385;-66
2023/10/05 02:21:54;;;;;;;5.65;2.35;;;;;;;14.11;82.34;102097.56;3618298;39;20049;-67
2023/10/05 02:24:25;;;;;;;9.63;2.25;;;;;;;14.10;81.82;102097.63;3618422;39;20483;-67
2023/10/05 02:29:34;;;;;;;7.22;2.70;;;;;;;13.87;82.24;102053.84;3618013;39;20053;-67
2023/10/05 02:34:48;;;;;;;7.43;2.17;;;;;;;14.05;81.90;102087.09;3616112;39;20381;-66
2023/10/05 02:37:19;;;;;;;9.98;2.42;;;;;;;14.03;82.08;102088.13;3614944;39;20087;-67
2023/10/05 02:39:45;;;;;;;7.93;2.33;;;;;;;13.91;82.19;102059.94;3606007;39;20518;-67
2023/10/05 02:42:12;;;;;;;7.35;2.30;;;;;;;14.06;82.13;102083.41;3618699;39;20070;-67
2023/10/05 02:44:43;;;;;;;8.60;2.70;;;;;;;14.02;81.97;102078.25;3616942;39;20057;-67
2023/10/05 02:47:12;;;;;;;10.52;2.90;;;;;;;13.91;82.15;102065.34;3615094;39;20093;-67
2023/10/05 02:49:47;;;;;;;9.95;3.00;;;;;;;14.00;82.06;102078.34;3615767;39;20123;-66
2023/10/05 02:52:16;;;;;;;8.85;2.53;;;;;;;13.98;82.03;102077.56;3617023;39;20063;-68
2023/10/05 02:54:51;;;;;;;6.30;2.28;;;;;;;13.95;82.10;102075.03;3615692;39;20059;-66
2023/10/05 02:57:17;;;;;;;8.57;2.55;;;;;;;13.93;82.28;102077.81;3614017;39;20089;-68
2023/10/05 02:59:44;;;;;;;8.90;2.92;;;;;;;13.90;82.97;102074.44;3615409;39;20059;-67
2023/10/05 03:02:14;;;;;;;7.70;2.65;;;;;;;13.91;82.52;102084.28;3616885;39;20098;-67
2023/10/05 03:04:47;;;;;;;9.27;2.50;;;;;;;13.90;82.57;102087.94;3617413;39;20073;-67
2023/10/05 03:07:18;;;;;;;6.05;2.45;;;;;;;13.79;82.65;102057.91;3616123;39;20085;-67
2023/10/05 03:09:47;;;;;;;5.53;2.38;;;;;;;13.90;82.46;102077.13;3616567;39;20058;-67
2023/10/05 03:12:14;;;;;;;5.78;2.35;;;;;;;13.81;82.69;102053.31;3617567;39;20050;-66
2023/10/05 03:14:43;;;;;;;12.20;2.50;;;;;;;13.82;82.55;102058.63;3617002;39;20133;-67
2023/10/05 03:17:13;;;;;;;9.93;2.22;;;;;;;13.85;82.52;102063.84;3616956;39;20260;-68
2023/10/05 03:19:39;;;;;;;6.95;2.42;;;;;;;13.86;82.43;102068.31;3618037;39;20074;-68
2023/10/05 03:22:12;;;;;;;9.02;3.00;;;;;;;13.86;82.48;102075.53;3617611;39;20062;-67
2023/10/05 03:24:38;;;;;;;5.80;2.17;;;;;;;13.84;82.57;102072.06;3609301;39;20091;-68
2023/10/05 03:27:05;;;;;;;14.05;2.88;;;;;;;13.50;83.04;102013.59;3607111;39;20042;-67
2023/10/05 03:29:35;;;;;;;8.25;2.58;;;;;;;13.65;82.96;102046.06;3616074;39;20425;-66
2023/10/05 03:34:37;;;;;;;8.38;3.08;;;;;;;13.79;82.89;102063.31;3614904;39;20094;-67
2023/10/05 03:37:04;;;;;;;8.60;2.80;;;;;;;13.77;83.31;102067.97;3617168;39;20645;-67
2023/10/05 03:39:33;;;;;;;7.75;2.63;;;;;;;13.57;83.51;102037.47;3614994;39;20054;-67
2023/10/05 03:41:59;;;;;;;8.63;2.92;;;;;;;13.76;83.61;102074.31;3616047;39;20130;-66
2023/10/05 03:44:26;;;;;;;7.72;2.88;;;;;;;13.76;83.45;102060.78;3616332;39;20043;-68
2023/10/05 03:46:52;;;;;;;5.60;2.40;;;;;;;13.73;83.74;102069.06;3607453;39;20042;-68
2023/10/05 03:49:21;;;;;;;7.75;2.88;;;;;;;13.70;83.62;102064.69;3618203;39;20054;-66
2023/10/05 03:51:50;;;;;;;8.45;2.80;;;;;;;13.32;84.10;102020.88;3616624;39;20053;-66
2023/10/05 03:54:18;;;;;;;5.50;2.60;;;;;;;12.73;84.16;101926.81;3616281;39;20042;-66
2023/10/05 03:56:58;;;;;;;9.32;3.15;;;;;;;13.65;83.67;102067.66;3617915;39;20057;-67
2023/10/05 03:59:24;;;;;;;6.95;2.75;;;;;;;13.52;83.90;102057.63;3615917;39;20073;-67
2023/10/05 04:01:51;;;;;;;8.93;2.85;;;;;;;13.55;84.67;102058.31;3615582;39;20396;-67
2023/10/05 04:04:16;;;;;;;8.50;2.75;;;;;;;13.52;84.67;102044.13;3608877;39;20045;-67
2023/10/05 04:06:42;;;;;;;7.95;2.60;;;;;;;13.53;84.40;102049.41;3605859;39;20050;-66
2023/10/05 04:09:15;;;;;;;13.68;3.05;;;;;;;13.53;84.96;102054.81;3615953;39;20047;-67
2023/10/05 04:11:43;;;;;;;7.30;2.95;;;;;;;13.32;85.12;102027.16;3605728;39;20124;-67
2023/10/05 04:14:09;;;;;;;8.38;3.05;;;;;;;13.49;85.02;102066.75;3605458;39;20047;-66
2023/10/05 04:16:35;;;;;;;8.65;3.15;;;;;;;13.50;84.90;102070.34;3617560;39;20055;-67
2023/10/05 04:19:04;;;;;;;5.55;2.42;;;;;;;13.43;84.85;102056.28;3614763;39;20074;-67
2023/10/05 04:21:31;;;;;;;6.18;2.95;;;;;;;13.45;85.15;102067.91;3614299;39;20470;-67
2023/10/05 04:23:59;;;;;;;7.25;2.70;;;;;;;13.42;84.94;102068.06;3616159;39;20119;-67
2023/10/05 04:26:33;;;;;;;12.50;3.10;;;;;;;13.38;85.88;102059.25;3616354;39;20057;-67
2023/10/05 04:29:04;;;;;;;;;;;;;;;13.35;85.60;102063.91;3614425;39;20131;-66
2023/10/05 04:31:38;;;;;;;5.53;2.70;;;;;;;13.22;85.93;102052.88;3617093;39;19943;-67
2023/10/05 04:34:11;;;;;;;;;;;;;;;13.31;86.28;102068.63;3616463;39;20042;-66
2023/10/05 04:36:38;;;;;;;8.70;3.45;;;;;;;13.30;86.06;102063.31;3615465;39;20266;-66
2023/10/05 04:39:06;;;;;;;9.07;3.08;;;;;;;13.30;86.57;102069.59;3614740;39;20053;-67
2023/10/05 04:41:48;;;;;;;11.20;3.25;;;;;;;13.13;86.37;102043.47;3615169;39;20054;-66
2023/10/05 04:44:14;;;;;;;8.73;2.92;;;;;;;13.30;86.02;102066.88;3616502;39;20069;-67
2023/10/05 04:46:47;;;;;;;11.25;2.65;;;;;;;13.31;86.63;102068.63;3615104;39;20066;-65
2023/10/05 04:49:17;;;;;;;;;;;;;;;13.30;86.28;102063.31;3617191;39;20120;-67
2023/10/05 04:51:44;;;;;;;10.02;3.00;;;;;;;13.14;86.19;102042.50;3615546;39;19971;-66
2023/10/05 04:54:12;;;;;;;8.57;2.80;;;;;;;13.29;87.01;102069.66;3615333;39;20055;-67
2023/10/05 05:01:56;;;;;;;7.75;2.85;;;;;;;13.30;86.65;102056.06;3614972;39;20050;-67
2023/10/05 05:07:12;;;;;;;8.98;3.13;;;;;;;13.27;86.94;102055.38;3616650;39;20057;-66
2023/10/05 05:09:41;;;;;;;10.75;3.53;;;;;;;13.06;86.51;102015.00;3605227;39;20382;-67
2023/10/05 05:12:16;;;;;;;10.15;3.47;;;;;;;13.34;86.98;102063.06;3615395;39;20047;-67
2023/10/05 05:14:46;;;;;;;8.68;3.00;;;;;;;13.38;86.85;102072.75;3615797;39;20047;-66
2023/10/05 05:17:23;;;;;;;7.43;3.05;;;;;;;13.22;86.68;102037.56;3619715;39;20057;-65
2023/10/05 05:19:52;;;;;;;7.63;2.90;;;;;;;13.42;86.84;102076.16;3619835;39;20367;-67
2023/10/05 05:22:18;;;;;;;9.27;3.17;;;;;;;13.44;86.58;102069.69;3617734;39;20047;-67
2023/10/05 05:24:45;;;;;;;6.88;3.13;;;;;;;13.44;86.88;102071.53;3605889;39;20386;-66
2023/10/05 05:27:21;;;;;;;9.07;3.13;;;;;;;13.44;86.42;102079.63;3614806;39;20055;-68
2023/10/05 05:29:48;;;;;;;7.03;2.85;;;;;;;13.44;86.70;102075.09;3616051;39;20054;-67
2023/10/05 05:32:14;;;;;;;9.93;2.78;;;;;;;13.46;86.53;102077.72;3616578;39;20054;-66
2023/10/05 05:34:42;;;;;;;10.07;3.20;;;;;;;13.45;86.38;102076.88;3614610;39;20051;-66
2023/10/05 05:37:13;;;;;;;8.52;3.03;;;;;;;13.43;86.45;102077.91;3613830;39;20099;-67
2023/10/05 05:39:42;;;;;;;6.65;2.42;;;;;;;13.45;86.61;102074.16;3609653;39;20316;-66
2023/10/05 05:42:18;;;;;;;7.40;3.40;;;;;;;13.47;86.39;102084.88;3604599;39;20418;-66
2023/10/05 05:44:44;;;;;;;10.93;3.22;;;;;;;13.43;86.66;102083.31;3610002;39;21408;-67
2023/10/05 05:47:14;;;;;;;9.27;3.13;;;;;;;13.49;86.48;102088.38;3616585;39;20058;-66
2023/10/05 05:49:45;;;;;;;10.82;3.25;;;;;;;13.51;86.24;102090.97;3617097;39;20047;-68
2023/10/05 05:52:12;;;;;;;10.75;3.08;;;;;;;13.53;86.78;102084.53;3618717;39;20046;-66
2023/10/05 05:54:41;;;;;;;11.18;3.22;;;;;;;13.56;86.32;102100.59;3617591;39;20296;-66
2023/10/05 05:57:07;;;;;;;7.47;2.97;;;;;;;13.57;86.12;102094.22;3616024;39;20047;-67
2023/10/05 05:59:38;;;;;;;9.40;3.30;;;;;;;13.49;86.20;102072.16;3616624;39;20067;-66
2023/10/05 06:02:07;;;;;;;10.95;3.22;;;;;;;13.60;86.77;102094.06;3617305;39;20123;-65
2023/10/05 06:04:35;;;;;;;8.68;2.80;;;;;;;13.50;86.59;102068.50;3616192;39;20051;-65
2023/10/05 06:07:02;;;;;;;9.02;3.13;;;;;;;13.64;86.13;102081.28;3616881;39;20094;-65
2023/10/05 06:09:33;;;;;;;7.03;2.88;;;;;;;13.64;86.03;102079.44;3615358;39;20047;-65
2023/10/05 06:12:00;;;;;;;9.02;3.20;;;;;;;13.65;86.07;102094.69;3615896;39;20066;-65
2023/10/05 06:14:27;;;;;;;11.77;3.58;;;;;;;13.69;86.37;102088.16;3613744;39;20066;-65
2023/10/05 06:16:54;;;;;;;10.02;3.30;;;;;;;13.71;85.81;102098.91;3615938;39;20057;-64
2023/10/05 06:19:21;;;;;;;5.70;2.97;;;;;;;13.73;85.94;102098.78;3617446;39;20124;-65
2023/10/05 06:21:47;;;;;;;7.93;3.35;;;;;;;13.72;85.75;102099.75;3613967;39;20091;-66
2023/10/05 06:24:12;;;;;;;9.95;3.45;;;;;;;13.78;85.82;102104.84;3613441;39;20444;-65
2023/10/05 06:26:38;;;;;;;12.85;3.17;;;;;;;13.58;85.34;102068.09;3613877;39;20054;-65
2023/10/05 06:29:08;;;;;;;11.50;3.13;;;;;;;13.83;85.55;102118.97;3614398;39;20054;-66
2023/10/05 06:31:38;;;;;;;10.45;3.47;;;;;;;13.85;85.40;102119.75;3614255;39;20039;-64
2023/10/05 06:34:09;;;;;;;9.38;3.38;;;;;;;13.84;85.75;102120.72;3616079;39;20047;-64
2023/10/05 06:36:38;;;;;;;8.60;3.40;;;;;;;13.42;85.29;102044.63;3615931;39;20053;-65
2023/10/05 06:39:06;;;;;;;8.48;3.28;;;;;;;13.93;85.29;102115.66;3615456;39;20058;-64
2023/10/05 06:41:36;;;;;;;6.90;3.00;;;;;;;13.97;85.03;102127.19;3616177;39;20381;-66
2023/10/05 06:44:03;;;;;;;8.35;2.63;;;;;;;13.94;85.25;102113.84;3614557;39;20054;-66
2023/10/05 06:46:29;;;;;;;8.68;3.10;;;;;;;14.03;84.95;102126.84;3616466;39;20143;-66
2023/10/05 06:48:55;;;;;;;7.45;2.85;;;;;;;14.04;84.65;102127.72;3614242;39;20306;-66
2023/10/05 06:51:28;;;;;;;7.65;3.05;;;;;;;14.08;84.88;102134.69;3615589;39;20374;-66
2023/10/05 06:53:58;;;;;;;9.98;2.90;;;;;;;14.10;84.11;102139.06;3615747;39;20066;-66
2023/10/05 06:56:28;;;;;;;8.60;3.03;;;;;;;14.12;84.50;102142.56;3613953;39;20075;-65
2023/10/05 06:58:54;;;;;;;6.05;3.05;;;;;;;14.14;84.80;102137.06;3613984;39;20066;-65
2023/10/05 07:01:20;;;;;;;9.63;3.05;;;;;;;14.22;84.73;102147.47;3618574;39;20061;-65
2023/10/05 07:03:53;;;;;;;6.57;3.00;;;;;;;14.23;84.64;102146.50;3617227;39;20055;-65
2023/10/05 07:06:29;;;;;;;11.70;3.58;;;;;;;14.15;84.14;102136.97;3615111;39;20054;-66
2023/10/05 07:08:56;;;;;;;9.10;3.30;;;;;;;14.31;84.58;102152.34;3615808;39;21696;-65
2023/10/05 07:11:23;;;;;;;8.23;3.15;;;;;;;14.21;84.01;102130.38;3616590;39;20054;-65
2023/10/05 07:13:49;;;;;;;7.53;3.17;;;;;;;14.37;83.75;102162.84;3613677;39;20063;-65
2023/10/05 07:16:16;;;;;;;10.38;3.38;;;;;;;14.39;83.24;102166.31;3613093;39;20054;-66
2023/10/05 07:18:42;;;;;;;8.20;3.33;;;;;;;14.44;83.12;102176.88;3614840;39;20122;-65
2023/10/05 07:21:09;;;;;;;14.15;3.30;;;;;;;14.26;83.11;102138.19;3613410;39;20054;-65
2023/10/05 07:23:39;;;;;;;6.80;3.00;;;;;;;14.47;82.64;102168.59;3617319;39;20425;-65
2023/10/05 07:26:06;;;;;;;11.32;3.30;;;;;;;14.47;83.19;102169.47;3613205;39;20058;-65
2023/10/05 07:28:37;;;;;;;8.20;3.40;;;;;;;14.57;82.74;102173.41;3615138;39;20043;-66
2023/10/05 07:31:04;;;;;;;10.68;3.60;;;;;;;14.63;82.85;102183.91;3615982;39;20356;-66
2023/10/05 07:33:33;;;;;;;7.25;3.13;;;;;;;14.66;82.37;102181.97;3612927;39;20139;-66
2023/10/05 07:35:59;;;;;;;14.25;5.13;;;;;;;14.73;81.73;102194.19;3617729;39;20065;-67
2023/10/05 07:38:26;;;;;;;8.02;3.58;;;;;;;14.76;81.82;102199.44;3608812;39;20054;-66
2023/10/05 07:40:55;;;;;;;8.45;2.83;;;;;;;14.75;81.69;102189.56;3613960;39;20131;-66
2023/10/05 07:43:21;;;;;;;8.30;3.22;;;;;;;14.81;81.15;102194.59;3613834;39;20053;-65
2023/10/05 07:45:48;;;;;;;8.60;3.63;;;;;;;14.83;81.22;102198.97;3615910;39;20051;-66
2023/10/05 07:48:13;;;;;;;9.77;3.22;;;;;;;14.86;81.87;102187.09;3613445;39;20055;-65
2023/10/05 07:50:39;;;;;;;7.03;2.85;;;;;;;14.92;81.05;102200.28;3611967;39;20061;-65
2023/10/05 07:53:05;;;;;;;7.32;3.40;;;;;;;14.96;80.71;102209.97;3614249;39;20409;-66
2023/10/05 07:55:31;;;;;;;6.80;2.75;;;;;;;15.02;80.91;102206.91;3615040;39;20066;-66
2023/10/05 07:57:57;;;;;;;9.05;3.63;;;;;;;15.21;81.08;102208.53;3614459;39;20385;-66
2023/10/05 08:00:23;;;;;;;12.15;3.30;;;;;;;15.35;79.20;102214.03;3616122;39;20063;-67
2023/10/05 08:02:49;;;;;;;7.80;3.30;;;;;;;15.30;78.52;102181.75;3616682;39;20047;-65
2023/10/05 08:05:18;;;;;;;8.48;3.33;;;;;;;15.61;77.96;102220.56;3605495;39;20326;-65
2023/10/05 08:07:46;;;;;;;9.07;3.40;;;;;;;15.72;77.32;102214.50;3613932;39;20046;-66
2023/10/05 08:10:15;;;;;;;8.95;3.25;;;;;;;15.74;77.06;102207.19;3613416;39;20429;-66
2023/10/05 08:12:43;;;;;;;6.97;3.15;;;;;;;15.90;76.85;102218.81;3615949;39;20038;-66
2023/10/05 08:15:18;;;;;;;8.45;3.33;;;;;;;15.98;76.24;102221.03;3613505;39;20059;-65
2023/10/05 08:17:48;;;;;;;12.23;3.00;;;;;;;15.95;75.14;102205.84;3613890;39;20319;-65
2023/10/05 08:20:15;;;;;;;7.65;3.08;;;;;;;16.11;75.57;102227.47;3615115;39;20059;-65
2023/10/05 08:22:41;;;;;;;8.48;3.00;;;;;;;16.14;74.79;102229.09;3614397;39;20381;-66
2023/10/05 08:25:11;;;;;;;10.18;2.88;;;;;;;16.21;75.08;102236.75;3613490;39;20121;-65
2023/10/05 08:27:38;;;;;;;7.95;3.05;;;;;;;16.25;74.29;102234.72;3614239;39;20051;-66
2023/10/05 08:30:08;;;;;;;12.13;3.20;;;;;;;16.27;74.37;102230.06;3615829;39;20051;-64
2023/10/05 08:32:36;;;;;;;6.93;2.90;;;;;;;16.31;74.31;102238.88;3616386;39;20054;-66
2023/10/05 08:35:12;;;;;;;8.85;3.03;;;;;;;16.14;73.39;102205.56;3619255;39;20047;-65
2023/10/05 08:37:42;;;;;;;8.43;3.30;;;;;;;16.32;73.19;102236.06;3615426;39;20466;-66
2023/10/05 08:43:16;;;;;;;7.20;3.15;;;;;;;16.37;74.06;102239.38;3615866;39;20069;-64
2023/10/05 08:45:47;;;;;;;9.05;2.90;;;;;;;16.39;74.27;102247.41;3614736;39;20047;-65
2023/10/05 08:48:35;;;;;;;4.88;3.13;;;;;;;16.44;74.76;102254.28;3618075;39;20050;-66
2023/10/05 08:51:15;;;;;;;9.63;2.95;;;;;;;16.46;73.88;102249.63;3615272;39;20140;-65
2023/10/05 08:53:50;;;;;;;11.63;2.92;;;;;;;16.52;74.11;102253.78;3622510;39;20043;-65
2023/10/05 08:56:17;;;;;;;8.10;3.00;;;;;;;16.48;72.39;102257.66;3614489;39;20126;-65
2023/10/05 08:58:46;;;;;;;9.90;3.22;;;;;;;16.51;72.76;102259.31;3614711;39;20440;-66
2023/10/05 09:01:31;;;;;;;7.90;3.17;;;;;;;16.54;72.57;102267.28;3617984;39;20049;-65
2023/10/05 09:04:23;;;;;;;10.15;3.60;;;;;;;16.56;73.13;102265.34;3608780;39;20074;-65
2023/10/05 09:07:08;;;;;;;8.82;3.10;;;;;;;16.64;72.65;102263.84;3617093;39;20047;-65
2023/10/05 09:09:38;;;;;;;8.45;3.03;;;;;;;16.68;73.05;102270.84;3616895;39;20071;-65
2023/10/05 09:12:38;;;;;;;8.20;2.90;;;;;;;16.77;72.29;102279.41;3615157;39;20051;-64
2023/10/05 09:17:57;;;;;;;7.47;2.97;;;;;;;16.79;72.58;102297.34;3614121;39;20054;-65
2023/10/05 09:20:24;;;;;;;8.32;2.50;;;;;;;16.84;72.07;102302.47;3616474;39;20046;-66
2023/10/05 09:22:56;;;;;;;6.80;2.50;;;;;;;16.90;72.13;102302.06;3618197;39;20343;-66
2023/10/05 09:25:28;;;;;;;8.15;2.85;;;;;;;16.91;71.75;102304.69;3617283;39;20369;-65
2023/10/05 09:27:56;;;;;;;7.82;2.63;;;;;;;16.93;71.82;102307.28;3617440;39;20393;-65
2023/10/05 09:30:22;;;;;;;5.32;2.47;;;;;;;16.95;71.76;102305.38;3615896;39;20043;-66
2023/10/05 09:33:06;;;;;;;7.75;2.50;;;;;;;16.97;71.13;102299.81;3614948;39;20348;-66
2023/10/05 09:35:31;;;;;;;10.00;2.70;;;;;;;16.99;71.39;102297.88;3614922;39;20090;-65
2023/10/05 09:37:58;;;;;;;12.05;3.13;;;;;;;17.03;71.09;102307.56;3612406;39;20047;-65
2023/10/05 09:40:26;;;;;;;12.23;3.13;;;;;;;17.06;70.69;102297.41;3618955;39;20106;-65
2023/10/05 09:42:55;;;;;;;11.52;3.10;;;;;;;17.14;71.15;102302.31;3615516;39;20067;-66
2023/10/05 09:45:25;;;;;;;9.02;2.78;;;;;;;17.17;71.05;102299.41;3616682;39;20047;-65
2023/10/05 09:47:53;;;;;;;16.10;2.90;;;;;;;17.18;70.95;102291.13;3614283;39;20103;-67
2023/10/05 09:50:26;;;;;;;10.50;2.50;;;;;;;17.23;70.30;102299.00;3613846;39;20058;-66
2023/10/05 09:52:53;;;;;;;9.68;2.83;;;;;;;17.17;69.82;102299.41;3616814;39;20572;-65
2023/10/05 09:55:20;;;;;;;7.00;2.92;;;;;;;17.20;70.13;102310.06;3614888;39;20051;-66
2023/10/05 09:57:47;;;;;;;9.52;2.70;;;;;;;17.18;69.75;102302.00;3619650;39;20057;-66
2023/10/05 10:02:58;;;;;;;7.07;2.50;;;;;;;17.19;69.65;102305.63;3614337;39;20062;-64
2023/10/05 10:05:33;;;;;;;10.40;2.85;;;;;;;17.23;70.73;102311.72;3615142;39;20082;-65
2023/10/05 10:08:30;;;;;;;7.68;2.47;;;;;;;17.22;69.91;102309.94;3614868;39;20070;-66
2023/10/05 10:11:09;;;;;;;8.75;2.88;;;;;;;17.25;71.11;102305.19;3612660;39;20050;-66
2023/10/05 10:13:37;;;;;;;9.68;3.30;;;;;;;17.24;70.41;102305.28;3616454;39;20129;-65
2023/10/05 10:16:22;;;;;;;3.97;2.33;;;;;;;17.25;70.36;102307.91;3616571;39;20108;-65
2023/10/05 10:18:53;;;;;;;9.63;2.60;;;;;;;17.27;70.05;102311.41;3618557;39;20079;-66
2023/10/05 10:21:35;;;;;;;7.25;2.20;;;;;;;17.25;70.14;102302.47;3617285;39;20043;-65
2023/10/05 10:24:07;;;;;;;6.57;2.60;;;;;;;17.33;70.19;102305.56;3614578;39;20054;-65
2023/10/05 10:27:07;;;;;;;7.10;2.30;;;;;;;17.36;70.92;102304.47;3615804;39;20050;-66
2023/10/05 10:29:55;;;;;;;7.40;2.58;;;;;;;17.43;70.36;102294.06;3614713;39;20054;-65
2023/10/05 10:32:32;;;;;;;12.45;2.97;;;;;;;17.52;69.78;102294.31;3614854;39;20058;-66
2023/10/05 10:35:26;;;;;;;10.68;3.75;;;;;;;17.59;69.46;102297.47;3614868;39;20112;-64
2023/10/05 10:37:54;;;;;;;8.55;2.45;;;;;;;17.70;69.67;102296.78;3614648;39;20067;-66
2023/10/05 10:45:42;;;;;;;8.02;2.22;;;;;;;18.01;68.21;102310.00;3615407;39;20340;-65
2023/10/05 10:48:09;;;;;;;8.80;2.72;;;;;;;18.20;67.67;102312.31;3615943;39;20326;-65
2023/10/05 10:50:39;;;;;;;8.00;2.38;;;;;;;18.41;66.75;102307.19;3612299;39;20054;-64
2023/10/05 10:53:17;;;;;;;8.20;2.75;;;;;;;18.62;65.52;102301.22;3617513;39;20055;-65
2023/10/05 10:55:58;;;;;;;6.90;2.35;;;;;;;18.87;65.67;102305.75;3616802;39;20078;-65
2023/10/05 10:58:26;;;;;;;9.57;2.70;;;;;;;17.85;63.45;102081.69;3614824;39;20051;-64
2023/10/05 11:00:57;;;;;;;9.07;2.72;;;;;;;19.39;64.31;102297.28;3613275;39;20058;-66
2023/10/05 11:03:26;;;;;;;7.65;2.30;;;;;;;19.69;62.34;102296.84;3614090;39;20043;-64
2023/10/05 11:05:57;;;;;;;5.50;2.20;;;;;;;20.03;61.39;102296.94;3613718;39;20401;-65
2023/10/05 11:08:30;;;;;;;8.52;2.58;;;;;;;20.21;60.25;102296.47;3616956;39;20043;-64
2023/10/05 11:11:06;;;;;;;6.75;2.53;;;;;;;20.40;58.51;102299.47;3614191;39;20055;-64
2023/10/05 11:13:35;;;;;;;7.50;2.47;;;;;;;20.57;57.23;102292.69;3615715;39;20105;-65
2023/10/05 11:16:03;;;;;;;6.25;2.45;;;;;;;20.79;57.77;102297.28;3615060;39;20119;-64
2023/10/05 11:18:39;;;;;;;6.85;2.55;;;;;;;21.03;56.63;102294.41;3615377;39;20135;-65
2023/10/05 11:21:14;;;;;;;5.25;2.40;;;;;;;21.34;56.41;102300.88;3614770;39;20047;-65
2023/10/05 11:23:55;;;;;;;10.07;2.92;;;;;;;21.20;55.69;102303.91;3614472;39;20107;-64
2023/10/05 11:26:27;;;;;;;13.38;2.40;;;;;;;21.09;54.91;102270.16;3613463;39;20057;-64
2023/10/05 11:28:56;;;;;;;8.40;2.30;;;;;;;21.19;55.35;102292.13;3613499;39;20062;-64
2023/10/05 11:31:24;;;;;;;7.20;2.05;;;;;;;20.95;55.84;102273.13;3614198;39;20396;-65
2023/10/05 11:33:53;;;;;;;6.80;2.58;;;;;;;21.13;55.04;102292.63;3622111;39;20052;-66
2023/10/05 11:36:27;;;;;;;5.72;2.63;;;;;;;20.91;54.96;102282.59;3616170;39;20373;-66
2023/10/05 11:38:57;;;;;;;7.55;2.50;;;;;;;21.05;55.24;102290.50;3611045;39;20537;-65
2023/10/05 11:41:29;;;;;;;4.82;2.22;;;;;;;21.30;54.81;102283.88;3614637;39;20400;-65
2023/10/05 11:43:58;;;;;;;6.80;2.53;;;;;;;21.53;53.87;102290.19;3616750;39;20078;-64
2023/10/05 11:46:48;;;;;;;5.90;2.47;;;;;;;21.48;53.74;102286.09;3614602;39;20057;-64
2023/10/05 11:49:14;;;;;;;7.65;2.75;;;;;;;21.47;54.21;102274.28;3613180;39;20051;-63
2023/10/05 11:51:44;;;;;;;8.65;2.40;;;;;;;21.44;53.63;102285.50;3615070;39;20054;-64
2023/10/05 11:54:12;;;;;;;7.60;2.72;;;;;;;21.21;53.58;102290.09;3615883;39;20059;-65
2023/10/05 11:56:41;;;;;;;6.47;2.60;;;;;;;21.02;54.61;102296.22;3616292;39;20055;-64
2023/10/05 11:59:11;;;;;;;7.38;2.53;;;;;;;21.29;54.25;102289.47;3605847;39;20050;-69
2023/10/05 12:01:40;;;;;;;5.60;2.40;;;;;;;21.29;53.49;102305.88;3615884;39;20039;-65
2023/10/05 12:04:08;;;;;;;6.60;2.70;;;;;;;21.41;54.06;102285.75;3617654;39;20593;-65
2023/10/05 12:06:37;;;;;;;6.97;2.67;;;;;;;21.45;52.93;102280.88;3616286;39;20050;-65
2023/10/05 12:09:07;;;;;;;6.65;2.17;;;;;;;21.64;53.39;102291.13;3612898;39;20119;-65
2023/10/05 12:11:37;;;;;;;5.30;2.22;;;;;;;22.15;53.10;102282.13;3614991;39;20050;-64
2023/10/05 12:14:04;;;;;;;4.43;2.08;;;;;;;22.34;51.26;102285.00;3614337;39;20340;-65